Time;durP1;ratioP1;P1;durP2;ratioP2;P2;SDS_P1;SDS_P2;PMS_P1;PMS_P2;Temp;Humidity;BMP_temperature;BMP_pressure;BME280_temperature;BME280_humidity;BME280_pressure;Samples;Min_cycle;Max_cycle;Signal;HPM_P1;HPM_P2
2022/09/18 00:01:57;;;;;;;;;;;;;;;12.02;88.36;100252.53;5087761;28;19981;-79
2022/09/18 00:04:24;;;;;;;;;;;;;;;12.16;87.78;100236.69;5088940;28;19928;-79
2022/09/18 00:06:50;;;;;;;;;;;;;;;12.15;86.21;100243.75;5080076;28;19970;-79
2022/09/18 00:09:17;;;;;;;;;;;;;;;11.75;87.81;100251.72;5088426;28;19927;-79
2022/09/18 00:11:46;;;;;;;;;;;;;;;12.04;87.19;100245.41;5088231;28;19981;-79
2022/09/18 00:14:13;;;;;;;;;;;;;;;11.94;86.00;100247.78;5087075;28;20005;-79
2022/09/18 00:16:40;;;;;;;;;;;;;;;12.05;86.06;100250.53;5087826;28;19924;-79
2022/09/18 00:19:06;;;;;;;;;;;;;;;11.66;87.24;100256.56;5088697;28;19924;-79
2022/09/18 00:21:34;;;;;;;;;;;;;;;11.60;87.56;100264.00;5085915;28;19928;-79
2022/09/18 00:24:01;;;;;;;;;;;;;;;11.92;86.29;100264.59;5088204;28;20516;-79
2022/09/18 00:26:29;;;;;;;;;;;;;;;12.27;84.54;100265.75;5088815;28;20334;-79
2022/09/18 00:28:55;;;;;;;;;;;;;;;11.95;84.77;100267.00;5087285;28;19989;-79
2022/09/18 00:31:24;;;;;;;;;;;;;;;12.18;84.58;100269.84;5087909;28;19924;-79
2022/09/18 00:33:50;;;;;;;;;;;;;;;11.96;84.71;100268.72;5089039;28;19928;-79
2022/09/18 00:36:17;;;;;;;;;;;;;;;11.80;86.10;100286.38;5085291;28;19973;-79
2022/09/18 00:38:44;;;;;;;;;;;;;;;11.91;85.69;100286.53;5086126;28;20368;-79
2022/09/18 00:41:13;;;;;;;;;;;;;;;11.78;85.93;100285.66;5088506;28;19930;-79
2022/09/18 00:43:40;;;;;;;;;;;;;;;12.22;84.23;100291.50;5086021;28;19932;-81
2022/09/18 00:46:08;;;;;;;;;;;;;;;11.98;84.97;100300.97;5075382;28;19925;-81
2022/09/18 00:48:40;;;;;;;;;;;;;;;11.81;84.96;100291.56;5085475;28;19928;-80
2022/09/18 00:51:06;;;;;;;;;;;;;;;11.79;85.67;100300.47;5087190;28;19924;-79
2022/09/18 00:53:33;;;;;;;;;;;;;;;11.87;84.89;100300.81;5086532;28;19950;-81
2022/09/18 00:56:00;;;;;;;;;;;;;;;11.82;84.43;100295.88;5087892;28;19977;-79
2022/09/18 00:58:27;;;;;;;;;;;;;;;11.84;84.09;100304.47;5086013;28;20357;-81
2022/09/18 01:00:54;;;;;;;;;;;;;;;11.89;83.59;100294.53;5086151;28;19977;-79
2022/09/18 01:03:21;;;;;;;;;;;;;;;11.65;84.30;100306.56;5088053;28;19930;-78
2022/09/18 01:05:56;;;;;;;;;;;;;;;11.59;84.04;100301.69;5085202;28;19924;-78
2022/09/18 01:08:35;;;;;;;;;;;;;;;11.45;84.73;100315.69;5093716;28;19970;-78
2022/09/18 01:11:07;;;;;;;;;;;;;;;11.44;83.86;100319.25;5090652;28;19930;-80
2022/09/18 01:13:38;;;;;;;;;;;;;;;11.37;85.36;100332.84;5086852;28;19973;-81
2022/09/18 01:16:09;;;;;;;;;;;;;;;11.56;83.85;100326.38;5084818;28;19928;-81
2022/09/18 01:18:39;;;;;;;;;;;;;;;11.39;84.15;100329.19;5093588;28;20326;-80
2022/09/18 01:21:09;;;;;;;;;;;;;;;11.46;83.93;100334.88;5087709;28;20441;-80
2022/09/18 01:23:53;;;;;;;;;;;;;;;11.18;84.56;100328.72;5087102;28;19928;-81
2022/09/18 01:26:27;;;;;;;;;;;;;;;11.17;84.19;100321.78;5075116;28;19924;-80
2022/09/18 01:28:58;;;;;;;;;;;;;;;11.30;83.27;100331.53;5093719;28;19927;-80
2022/09/18 01:31:28;;;;;;;;;;;;;;;11.50;81.63;100325.88;5107281;28;19984;-80
2022/09/18 01:33:58;;;;;;;;;;;;;;;11.60;80.95;100333.09;5104629;28;19928;-80
2022/09/18 01:36:27;;;;;;;;;;;;;;;11.30;81.19;100332.38;5095261;28;19925;-80
2022/09/18 01:38:55;;;;;;;;;;;;;;;11.17;82.05;100336.66;5087211;28;25177;-80
2022/09/18 01:41:23;;;;;;;;;;;;;;;11.21;82.12;100338.16;5085901;28;20338;-80
2022/09/18 01:43:51;;;;;;;;;;;;;;;11.24;81.51;100333.59;5071018;28;19928;-80
2022/09/18 01:46:19;;;;;;;;;;;;;;;11.36;81.21;100341.66;5087839;28;19928;-80
2022/09/18 01:48:48;;;;;;;;;;;;;;;11.65;79.88;100338.91;5086946;28;19927;-80
2022/09/18 01:51:19;;;;;;;;;;;;;;;11.60;79.35;100335.72;5087035;28;19977;-80
2022/09/18 01:53:48;;;;;;;;;;;;;;;11.70;79.47;100344.72;5088589;28;19931;-80
2022/09/18 01:56:16;;;;;;;;;;;;;;;11.31;80.41;100355.03;5087849;28;19932;-80
2022/09/18 01:58:44;;;;;;;;;;;;;;;11.53;80.60;100346.72;5085770;28;19924;-80
2022/09/18 02:01:12;;;;;;;;;;;;;;;11.27;80.75;100337.78;5084932;28;19928;-80
2022/09/18 02:03:44;;;;;;;;;;;;;;;11.40;81.20;100346.63;5086503;28;19924;-80
2022/09/18 02:06:13;;;;;;;;;;;;;;;11.36;81.03;100347.75;5086133;28;20027;-80
2022/09/18 02:08:41;;;;;;;;;;;;;;;11.61;80.02;100342.66;5084903;28;19924;-80
2022/09/18 02:11:09;;;;;;;;;;;;;;;11.23;81.32;100346.81;5094547;28;20296;-80
2022/09/18 02:13:37;;;;;;;;;;;;;;;11.50;79.82;100347.75;5088804;28;19993;-80
2022/09/18 02:16:07;;;;;;;;;;;;;;;11.11;81.41;100344.91;5085207;28;19989;-80
2022/09/18 02:18:36;;;;;;;;;;;;;;;11.49;80.16;100343.41;5086271;28;20351;-80
2022/09/18 02:21:07;;;;;;;;;;;;;;;11.28;80.46;100328.97;5087290;28;19976;-81
2022/09/18 02:23:36;;;;;;;;;;;;;;;11.06;81.61;100341.72;5086449;28;19950;-81
2022/09/18 02:26:06;;;;;;;;;;;;;;;11.38;80.17;100340.59;5102834;28;20331;-81
2022/09/18 02:28:33;;;;;;;;;;;;;;;11.58;79.14;100334.13;5065196;28;19979;-81
2022/09/18 02:30:59;;;;;;;;;;;;;;;11.57;79.06;100325.41;5066501;28;19925;-81
2022/09/18 02:33:27;;;;;;;;;;;;;;;11.35;79.92;100335.53;5064426;28;20320;-81
2022/09/18 02:35:59;;;;;;;;;;;;;;;11.53;78.64;100339.66;5066549;28;19928;-81
2022/09/18 02:38:29;;;;;;;;;;;;;;;11.58;78.74;100327.09;5088291;28;19932;-81
2022/09/18 02:40:59;;;;;;;;;;;;;;;11.42;79.89;100320.28;5107981;28;19928;-81
2022/09/18 02:43:30;;;;;;;;;;;;;;;11.06;81.11;100328.59;5106858;28;19931;-81
2022/09/18 02:46:04;;;;;;;;;;;;;;;11.20;80.37;100323.34;5090127;28;19924;-80
2022/09/18 02:48:35;;;;;;;;;;;;;;;11.13;80.96;100314.16;5084019;28;19924;-78
2022/09/18 02:51:07;;;;;;;;;;;;;;;11.00;81.56;100332.44;5085043;28;20342;-78
2022/09/18 02:53:38;;;;;;;;;;;;;;;10.80;82.75;100321.44;5092041;28;19928;-78
2022/09/18 02:56:06;;;;;;;;;;;;;;;11.08;81.81;100316.25;5100942;28;19923;-78
2022/09/18 02:58:36;;;;;;;;;;;;;;;11.15;81.37;100328.06;5105041;28;19924;-78
2022/09/18 03:01:03;;;;;;;;;;;;;;;11.31;80.56;100341.91;5093813;28;19928;-78
2022/09/18 03:03:30;;;;;;;;;;;;;;;11.40;79.88;100340.53;5106163;28;19973;-79
2022/09/18 03:05:57;;;;;;;;;;;;;;;11.62;79.12;100354.03;5099000;28;19974;-78
2022/09/18 03:08:24;;;;;;;;;;;;;;;11.65;78.64;100345.94;5084405;28;19977;-78
2022/09/18 03:10:51;;;;;;;;;;;;;;;11.14;80.90;100348.19;5079973;28;19955;-79
2022/09/18 03:13:17;;;;;;;;;;;;;;;11.15;80.59;100349.06;5084409;28;20544;-79
2022/09/18 03:15:44;;;;;;;;;;;;;;;11.23;79.77;100341.56;5083362;28;19924;-79
2022/09/18 03:18:10;;;;;;;;;;;;;;;11.16;79.79;100348.09;5086134;28;19932;-79
2022/09/18 03:20:37;;;;;;;;;;;;;;;11.37;79.33;100345.97;5087975;28;20268;-79
2022/09/18 03:23:03;;;;;;;;;;;;;;;11.27;79.65;100345.66;5090282;28;19928;-79
2022/09/18 03:25:29;;;;;;;;;;;;;;;11.70;77.30;100352.59;5085640;28;19973;-79
2022/09/18 03:27:57;;;;;;;;;;;;;;;11.71;77.30;100340.34;5088113;28;19932;-79
2022/09/18 03:30:23;;;;;;;;;;;;;;;11.70;77.55;100347.34;5087958;28;19989;-79
2022/09/18 03:32:50;;;;;;;;;;;;;;;11.44;78.49;100345.50;5087757;28;19928;-79
2022/09/18 03:35:16;;;;;;;;;;;;;;;11.19;79.84;100354.03;5089626;28;19928;-79
2022/09/18 03:37:42;;;;;;;;;;;;;;;11.34;79.09;100354.88;5088831;28;20337;-79
2022/09/18 03:40:09;;;;;;;;;;;;;;;11.35;78.93;100353.91;5086941;28;19974;-78
2022/09/18 03:42:35;;;;;;;;;;;;;;;11.40;78.63;100349.25;5088171;28;19938;-77
2022/09/18 03:45:03;;;;;;;;;;;;;;;11.35;78.81;100347.81;5088857;28;19977;-77
2022/09/18 03:47:29;;;;;;;;;;;;;;;11.46;78.49;100359.34;5087995;28;19928;-77
2022/09/18 03:49:55;;;;;;;;;;;;;;;11.49;78.06;100359.16;5100486;28;19949;-77
2022/09/18 03:52:22;;;;;;;;;;;;;;;11.12;79.70;100357.94;5108511;28;19924;-77
2022/09/18 03:54:48;;;;;;;;;;;;;;;11.16;79.34;100359.44;5108144;28;19981;-77
2022/09/18 03:57:14;;;;;;;;;;;;;;;11.30;79.16;100363.88;5108587;28;19924;-77
2022/09/18 03:59:40;;;;;;;;;;;;;;;11.46;78.55;100359.34;5109346;28;19977;-77
2022/09/18 04:02:08;;;;;;;;;;;;;;;11.18;78.95;100359.34;5095652;28;19949;-77
2022/09/18 04:04:34;;;;;;;;;;;;;;;11.11;79.42;100358.03;5104677;28;20389;-77
2022/09/18 04:07:00;;;;;;;;;;;;;;;11.48;77.53;100357.50;5091361;28;19924;-77
2022/09/18 04:09:26;;;;;;;;;;;;;;;11.17;78.19;100355.88;5086101;28;19924;-77
2022/09/18 04:11:53;;;;;;;;;;;;;;;11.22;78.92;100358.25;5088327;28;20014;-77
2022/09/18 04:14:19;;;;;;;;;;;;;;;10.86;80.09;100352.56;5088330;28;20014;-77
2022/09/18 04:16:45;;;;;;;;;;;;;;;10.94;80.02;100356.41;5086705;28;19936;-77
2022/09/18 04:19:13;;;;;;;;;;;;;;;10.90;80.40;100359.31;5089164;28;19928;-77
2022/09/18 04:21:39;;;;;;;;;;;;;;;10.98;80.13;100363.16;5087823;28;20038;-77
2022/09/18 04:24:06;;;;;;;;;;;;;;;10.71;81.19;100365.66;5086285;28;19927;-80
2022/09/18 04:26:33;;;;;;;;;;;;;;;10.86;80.33;100357.81;5082640;28;19930;-80
2022/09/18 04:28:59;;;;;;;;;;;;;;;10.73;80.86;100368.16;5088000;28;19943;-80
2022/09/18 04:31:25;;;;;;;;;;;;;;;10.64;81.78;100368.72;5088143;28;19951;-80
2022/09/18 04:33:52;;;;;;;;;;;;;;;10.87;80.71;100372.59;5110135;28;19973;-80
2022/09/18 04:36:20;;;;;;;;;;;;;;;10.98;80.04;100364.94;5103055;28;19966;-80
2022/09/18 04:38:46;;;;;;;;;;;;;;;10.87;80.39;100372.59;5086223;28;19932;-80
2022/09/18 04:41:12;;;;;;;;;;;;;;;10.91;80.38;100374.94;5089503;28;19928;-80
2022/09/18 04:43:38;;;;;;;;;;;;;;;11.05;80.17;100369.72;5088073;28;19924;-80
2022/09/18 04:46:05;;;;;;;;;;;;;;;10.97;80.37;100372.00;5087923;28;19935;-81
2022/09/18 04:48:31;;;;;;;;;;;;;;;10.90;80.74;100369.81;5089256;28;19978;-81
2022/09/18 04:50:57;;;;;;;;;;;;;;;11.24;79.22;100379.97;5087371;28;19978;-81
2022/09/18 04:53:26;;;;;;;;;;;;;;;11.35;78.05;100387.19;5087126;28;19935;-81
2022/09/18 04:55:52;;;;;;;;;;;;;;;11.28;78.75;100381.47;5077670;28;19925;-80
2022/09/18 04:58:19;;;;;;;;;;;;;;;11.33;78.45;100383.84;5084029;28;19977;-80
2022/09/18 05:00:48;;;;;;;;;;;;;;;11.23;78.98;100381.75;5097863;28;19965;-80
2022/09/18 05:03:18;;;;;;;;;;;;;;;11.05;79.33;100380.22;5108209;28;19923;-80
2022/09/18 05:05:44;;;;;;;;;;;;;;;11.43;78.25;100392.84;5102000;28;19989;-80
2022/09/18 05:08:10;;;;;;;;;;;;;;;10.96;79.37;100387.81;5084939;28;20338;-80
2022/09/18 05:10:38;;;;;;;;;;;;;;;11.22;78.47;100387.09;5088244;28;19977;-79
2022/09/18 05:13:04;;;;;;;;;;;;;;;11.38;77.19;100385.22;5092526;28;19985;-79
2022/09/18 05:15:31;;;;;;;;;;;;;;;11.10;78.03;100385.22;5094503;28;20366;-79
2022/09/18 05:18:00;;;;;;;;;;;;;;;11.06;78.26;100383.69;5089611;28;19928;-79
2022/09/18 05:20:27;;;;;;;;;;;;;;;11.14;77.47;100386.72;5086611;28;19928;-79
2022/09/18 05:22:53;;;;;;;;;;;;;;;11.00;78.28;100384.06;5087514;28;19951;-80
2022/09/18 05:25:20;;;;;;;;;;;;;;;11.37;77.12;100386.19;5087290;28;20361;-80
2022/09/18 05:27:54;;;;;;;;;;;;;;;11.09;77.74;100386.13;5092102;28;20306;-81
2022/09/18 05:30:20;;;;;;;;;;;;;;;11.20;77.20;100391.59;5084757;28;20265;-80
2022/09/18 05:32:53;;;;;;;;;;;;;;;10.94;78.35;100387.06;5086464;28;19924;-80
2022/09/18 05:35:19;;;;;;;;;;;;;;;11.27;77.39;100392.91;5087209;28;19974;-80
2022/09/18 05:37:46;;;;;;;;;;;;;;;11.48;75.72;100391.63;5085654;28;19974;-80
2022/09/18 05:40:12;;;;;;;;;;;;;;;11.86;74.45;100397.16;5086646;28;20349;-80
2022/09/18 05:42:44;;;;;;;;;;;;;;;12.41;72.02;100385.78;5096119;28;19928;-80
2022/09/18 05:45:12;;;;;;;;;;;;;;;12.51;71.70;100387.72;5086298;28;20048;-80
2022/09/18 05:47:39;;;;;;;;;;;;;;;12.74;70.58;100394.13;5086241;28;19924;-80
2022/09/18 05:50:06;;;;;;;;;;;;;;;12.79;70.94;100396.41;5085612;28;19973;-80
2022/09/18 05:52:32;;;;;;;;;;;;;;;12.67;71.29;100392.84;5087436;28;20448;-78
2022/09/18 05:54:58;;;;;;;;;;;;;;;13.17;69.15;100392.09;5086379;28;20395;-78
2022/09/18 05:57:24;;;;;;;;;;;;;;;13.32;68.68;100384.97;5088149;28;19950;-78
2022/09/18 05:59:51;;;;;;;;;;;;;;;13.14;68.79;100379.16;5092790;28;19928;-77
2022/09/18 06:02:18;;;;;;;;;;;;;;;13.86;67.09;100391.66;5087170;28;19924;-77
2022/09/18 06:04:45;;;;;;;;;;;;;;;14.15;65.08;100394.88;5086925;28;20383;-77
2022/09/18 06:07:14;;;;;;;;;;;;;;;14.00;65.93;100396.81;5084514;28;20320;-78
2022/09/18 06:09:40;;;;;;;;;;;;;;;13.73;66.65;100390.84;5085786;28;19924;-76
2022/09/18 06:12:07;;;;;;;;;;;;;;;13.69;66.61;100393.78;5086933;28;19927;-77
2022/09/18 06:14:33;;;;;;;;;;;;;;;13.96;66.28;100391.84;5084637;28;20545;-77
2022/09/18 06:16:59;;;;;;;;;;;;;;;14.14;65.55;100382.63;5084052;28;20375;-77
2022/09/18 06:19:27;;;;;;;;;;;;;;;14.77;63.59;100381.53;5085354;28;19956;-77
2022/09/18 06:21:53;;;;;;;;;;;;;;;14.97;63.39;100392.28;5084688;28;19930;-77
2022/09/18 06:24:19;;;;;;;;;;;;;;;14.81;62.49;100389.13;5085048;28;19925;-77
2022/09/18 06:26:47;;;;;;;;;;;;;;;15.14;62.70;100383.09;5084690;28;19928;-76
2022/09/18 06:29:14;;;;;;;;;;;;;;;14.88;61.75;100377.13;5084597;28;20371;-77
2022/09/18 06:31:40;;;;;;;;;;;;;;;14.76;63.17;100375.41;5086042;28;19978;-76
2022/09/18 06:34:06;;;;;;;;;;;;;;;14.57;63.78;100383.00;5086953;28;19977;-77
2022/09/18 06:36:34;;;;;;;;;;;;;;;15.13;62.13;100389.31;5076734;28;19929;-76
2022/09/18 06:39:00;;;;;;;;;;;;;;;15.17;62.38;100384.66;5084247;28;19986;-76
2022/09/18 06:41:26;;;;;;;;;;;;;;;15.03;62.76;100386.53;5086058;28;19946;-76
2022/09/18 06:43:53;;;;;;;;;;;;;;;14.97;63.34;100388.78;5084690;28;20376;-76
2022/09/18 06:46:19;;;;;;;;;;;;;;;14.89;63.23;100393.81;5085515;28;19924;-77
2022/09/18 06:48:47;;;;;;;;;;;;;;;14.89;63.59;100388.53;5086801;28;19932;-77
2022/09/18 06:51:14;;;;;;;;;;;;;;;14.57;64.26;100394.41;5086550;28;20334;-76
2022/09/18 06:53:41;;;;;;;;;;;;;;;15.25;62.63;100401.59;5086582;28;19925;-77
2022/09/18 06:56:07;;;;;;;;;;;;;;;16.06;61.04;100404.91;5087158;28;19924;-76
2022/09/18 06:58:34;;;;;;;;;;;;;;;15.68;60.16;100393.03;5084089;28;19924;-76
2022/09/18 07:01:00;;;;;;;;;;;;;;;15.41;61.03;100399.44;5087104;28;20272;-77
2022/09/18 07:03:26;;;;;;;;;;;;;;;15.29;60.86;100405.69;5092101;28;20502;-75
2022/09/18 07:05:52;;;;;;;;;;;;;;;15.54;60.59;100415.25;5088944;28;20400;-76
2022/09/18 07:08:19;;;;;;;;;;;;;;;15.72;61.19;100403.25;5088915;28;19927;-76
2022/09/18 07:10:46;;;;;;;;;;;;;;;15.58;60.45;100399.03;5089177;28;20353;-77
2022/09/18 07:13:12;;;;;;;;;;;;;;;16.22;58.90;100396.56;5087083;28;19942;-77
2022/09/18 07:15:39;;;;;;;;;;;;;;;16.19;58.98;100399.47;5091083;28;20337;-77
2022/09/18 07:18:06;;;;;;;;;;;;;;;16.03;59.85;100404.31;5095950;28;20391;-78
2022/09/18 07:20:33;;;;;;;;;;;;;;;16.11;59.55;100404.56;5086866;28;19924;-77
2022/09/18 07:23:00;;;;;;;;;;;;;;;16.52;58.69;100407.31;5088429;28;19928;-77
2022/09/18 07:25:26;;;;;;;;;;;;;;;17.35;57.46;100403.97;5089775;28;19981;-78
2022/09/18 07:27:54;;;;;;;;;;;;;;;17.45;56.58;100408.34;5087812;28;19973;-78
2022/09/18 07:30:20;;;;;;;;;;;;;;;17.95;54.09;100411.97;5088854;28;20310;-77
2022/09/18 07:32:47;;;;;;;;;;;;;;;17.62;54.91;100416.72;5088462;28;20010;-77
2022/09/18 07:35:13;;;;;;;;;;;;;;;18.12;52.78;100399.03;5088242;28;20342;-77
2022/09/18 07:37:40;;;;;;;;;;;;;;;17.37;53.84;100410.81;5089670;28;19946;-76
2022/09/18 07:40:07;;;;;;;;;;;;;;;16.93;56.49;100417.19;5093202;28;19927;-76
2022/09/18 07:42:33;;;;;;;;;;;;;;;17.08;55.66;100408.94;5101500;28;19924;-76
2022/09/18 07:45:00;;;;;;;;;;;;;;;17.53;54.85;100416.50;5089793;28;20527;-76
2022/09/18 07:47:27;;;;;;;;;;;;;;;18.01;53.01;100415.88;5094546;28;19927;-76
2022/09/18 07:49:53;;;;;;;;;;;;;;;17.16;54.52;100411.78;5106838;28;20414;-76
2022/09/18 07:52:20;;;;;;;;;;;;;;;17.27;55.24;100417.00;5100548;28;20342;-76
2022/09/18 07:54:46;;;;;;;;;;;;;;;18.07;55.12;100415.34;5100558;28;19931;-76
2022/09/18 07:57:12;;;;;;;;;;;;;;;17.77;53.16;100418.03;5088381;28;19954;-76
2022/09/18 07:59:38;;;;;;;;;;;;;;;17.66;53.66;100410.16;5083589;28;19928;-76
2022/09/18 08:02:06;;;;;;;;;;;;;;;17.15;55.16;100415.38;5071117;28;20336;-76
2022/09/18 08:04:32;;;;;;;;;;;;;;;16.49;56.94;100418.16;5088689;28;19932;-76
2022/09/18 08:07:02;;;;;;;;;;;;;;;16.52;56.96;100417.06;5089230;28;20342;-76
2022/09/18 08:09:29;;;;;;;;;;;;;;;17.03;56.69;100411.97;5091486;28;19924;-76
2022/09/18 08:11:55;;;;;;;;;;;;;;;17.32;55.08;100399.78;5086501;28;19924;-76
2022/09/18 08:14:21;;;;;;;;;;;;;;;17.91;53.98;100409.72;5085902;28;19977;-76
2022/09/18 08:16:48;;;;;;;;;;;;;;;17.90;53.83;100406.22;5088781;28;20379;-76
2022/09/18 08:19:15;;;;;;;;;;;;;;;18.20;51.78;100408.00;5107086;28;19924;-76
2022/09/18 08:21:41;;;;;;;;;;;;;;;18.37;51.44;100412.63;5094054;28;19924;-76
2022/09/18 08:24:08;;;;;;;;;;;;;;;19.00;51.18;100405.16;5106610;28;19928;-76
2022/09/18 08:26:37;;;;;;;;;;;;;;;19.04;49.47;100411.03;5106621;28;19992;-77
2022/09/18 08:29:03;;;;;;;;;;;;;;;19.56;48.09;100412.38;5107812;28;19928;-76
2022/09/18 08:31:29;;;;;;;;;;;;;;;18.92;47.88;100412.97;5096074;28;19925;-77
2022/09/18 08:33:56;;;;;;;;;;;;;;;17.83;50.29;100418.34;5094332;28;19935;-77
2022/09/18 08:36:23;;;;;;;;;;;;;;;17.00;51.62;100412.22;5101337;28;19932;-78
2022/09/18 08:38:52;;;;;;;;;;;;;;;17.55;53.46;100412.88;5085706;28;19924;-78
2022/09/18 08:41:27;;;;;;;;;;;;;;;17.96;53.40;100415.44;5099452;28;19927;-79
2022/09/18 08:44:00;;;;;;;;;;;;;;;17.99;51.88;100407.25;5103416;28;19924;-79
2022/09/18 08:46:30;;;;;;;;;;;;;;;17.50;52.57;100413.25;5094762;28;20346;-80
2022/09/18 08:48:59;;;;;;;;;;;;;;;17.18;52.91;100412.50;5099541;28;19932;-79
2022/09/18 08:51:30;;;;;;;;;;;;;;;16.82;55.57;100411.09;5105747;28;20341;-76
2022/09/18 08:53:58;;;;;;;;;;;;;;;16.04;55.17;100416.56;5103586;28;20494;-78
2022/09/18 08:56:25;;;;;;;;;;;;;;;16.67;56.61;100401.75;5089570;28;19924;-78
2022/09/18 08:58:54;;;;;;;;;;;;;;;17.06;54.29;100409.06;5096683;28;19928;-76
2022/09/18 09:01:22;;;;;;;;;;;;;;;17.14;54.14;100392.53;5104803;28;20071;-75
2022/09/18 09:03:52;;;;;;;;;;;;;;;17.04;53.21;100403.88;5091056;28;20281;-76
2022/09/18 09:06:27;;;;;;;;;;;;;;;17.61;51.92;100397.31;5087992;28;19974;-76
2022/09/18 09:09:09;;;;;;;;;;;;;;;18.32;50.99;100382.19;5078162;28;22333;-75
2022/09/18 09:11:43;;;;;;;;;;;;;;;17.96;50.02;100386.25;5080655;28;19924;-76
2022/09/18 09:14:30;;;;;;;;;;;;;;;17.89;50.92;100399.22;5085736;28;19985;-77
2022/09/18 09:17:03;;;;;;;;;;;;;;;17.61;51.14;100381.41;5078034;28;19928;-76
2022/09/18 09:19:33;;;;;;;;;;;;;;;17.43;51.37;100381.13;5085740;28;20335;-76
2022/09/18 09:22:04;;;;;;;;;;;;;;;18.22;49.84;100382.16;5090961;28;19932;-77
2022/09/18 09:24:32;;;;;;;;;;;;;;;18.86;50.17;100379.88;5092744;28;19924;-76
2022/09/18 09:27:04;;;;;;;;;;;;;;;18.46;47.85;100377.31;5085012;28;19998;-76
2022/09/18 09:29:33;;;;;;;;;;;;;;;18.69;48.56;100387.69;5085956;28;20459;-76
2022/09/18 09:32:04;;;;;;;;;;;;;;;18.81;48.01;100378.59;5086001;28;19970;-76
2022/09/18 09:34:32;;;;;;;;;;;;;;;18.90;46.21;100378.59;5085793;28;19959;-76
2022/09/18 09:37:00;;;;;;;;;;;;;;;18.67;47.23;100369.25;5087658;28;19928;-76
2022/09/18 09:39:29;;;;;;;;;;;;;;;18.75;47.07;100368.53;5085023;28;19985;-76
2022/09/18 09:41:58;;;;;;;;;;;;;;;18.95;47.47;100364.91;5085854;28;19924;-76
2022/09/18 09:44:34;;;;;;;;;;;;;;;19.64;46.77;100354.81;5084348;28;19989;-77
2022/09/18 09:47:03;;;;;;;;;;;;;;;20.15;43.58;100356.91;5082671;28;19924;-76
2022/09/18 09:49:31;;;;;;;;;;;;;;;20.69;43.63;100355.16;5086806;28;19924;-76
2022/09/18 09:52:02;;;;;;;;;;;;;;;19.81;45.09;100347.84;5103577;28;19951;-76
2022/09/18 09:54:28;;;;;;;;;;;;;;;19.89;46.12;100347.97;5104901;28;19928;-76
2022/09/18 09:56:58;;;;;;;;;;;;;;;19.97;45.37;100350.72;5102424;28;19923;-76
2022/09/18 09:59:29;;;;;;;;;;;;;;;20.20;44.79;100343.16;5085141;28;19932;-76
2022/09/18 10:01:59;;;;;;;;;;;;;;;20.60;43.93;100345.41;5076181;28;19989;-76
2022/09/18 10:04:30;;;;;;;;;;;;;;;20.12;43.06;100335.09;5085660;28;19924;-76
2022/09/18 10:06:59;;;;;;;;;;;;;;;18.91;44.61;100343.09;5084482;28;19932;-76
2022/09/18 10:09:33;;;;;;;;;;;;;;;19.35;47.30;100346.06;5085402;28;19973;-76
2022/09/18 10:12:03;;;;;;;;;;;;;;;19.47;45.65;100350.28;5078822;28;19928;-76
2022/09/18 10:14:31;;;;;;;;;;;;;;;19.77;44.44;100347.31;5083709;28;19928;-76
2022/09/18 10:16:59;;;;;;;;;;;;;;;20.11;45.68;100344.88;5084699;28;20345;-77
2022/09/18 10:19:29;;;;;;;;;;;;;;;20.26;44.41;100327.41;5084607;28;19924;-76
2022/09/18 10:21:56;;;;;;;;;;;;;;;20.51;45.60;100336.50;5085533;28;19973;-76
2022/09/18 10:24:25;;;;;;;;;;;;;;;20.18;42.82;100345.97;5083848;28;19924;-76
2022/09/18 10:26:53;;;;;;;;;;;;;;;20.00;42.85;100333.59;5086118;28;19932;-76
2022/09/18 10:29:20;;;;;;;;;;;;;;;19.32;44.18;100349.03;5093981;28;19939;-76
2022/09/18 10:31:47;;;;;;;;;;;;;;;18.10;47.29;100353.22;5081116;28;19932;-76
2022/09/18 10:34:30;;;;;;;;;;;;;;;17.27;53.33;100356.91;5084576;28;19930;-76
2022/09/18 10:36:56;;;;;;;;;;;;;;;15.83;58.76;100370.66;5083142;28;19935;-77
2022/09/18 10:39:26;;;;;;;;;;;;;;;14.96;63.93;100374.78;5083306;28;20061;-77
2022/09/18 10:41:56;;;;;;;;;;;;;;;14.80;67.44;100361.03;5084749;28;19924;-76
2022/09/18 10:44:24;;;;;;;;;;;;;;;15.55;69.88;100364.94;5082738;28;19924;-77
2022/09/18 10:46:52;;;;;;;;;;;;;;;15.85;68.13;100353.72;5080663;28;20333;-78
2022/09/18 10:49:19;;;;;;;;;;;;;;;16.19;68.70;100349.19;5085027;28;19981;-78
2022/09/18 10:51:47;;;;;;;;;;;;;;;15.90;66.02;100345.41;5082870;28;19930;-78
2022/09/18 10:54:17;;;;;;;;;;;;;;;16.35;65.96;100336.41;5083829;28;19923;-78
2022/09/18 10:56:44;;;;;;;;;;;;;;;16.62;65.90;100332.50;5083385;28;19931;-78
2022/09/18 10:59:13;;;;;;;;;;;;;;;16.93;60.96;100327.16;5082859;28;20389;-77
2022/09/18 11:01:39;;;;;;;;;;;;;;;17.58;63.65;100320.69;5074048;28;19928;-77
2022/09/18 11:04:06;;;;;;;;;;;;;;;18.41;57.68;100313.16;5084451;28;20380;-76
2022/09/18 11:06:34;;;;;;;;;;;;;;;19.12;54.79;100319.00;5086470;28;19946;-76
2022/09/18 11:09:08;;;;;;;;;;;;;;;19.49;52.88;100329.66;5084025;28;19924;-75
2022/09/18 11:11:35;;;;;;;;;;;;;;;19.56;52.14;100321.94;5085163;28;19928;-74
2022/09/18 11:14:02;;;;;;;;;;;;;;;18.12;53.59;100309.66;5084055;28;19924;-74
2022/09/18 11:16:29;;;;;;;;;;;;;;;17.49;56.24;100301.09;5085182;28;19924;-75
2022/09/18 11:19:04;;;;;;;;;;;;;;;17.19;56.28;100298.44;5083334;28;19942;-75
2022/09/18 11:21:30;;;;;;;;;;;;;;;16.48;58.65;100294.72;5084775;28;19928;-75
2022/09/18 11:24:03;;;;;;;;;;;;;;;15.85;60.60;100300.03;5103598;28;20260;-75
2022/09/18 11:26:30;;;;;;;;;;;;;;;16.37;60.34;100294.78;5105800;28;19946;-75
2022/09/18 11:29:01;;;;;;;;;;;;;;;17.68;61.38;100295.03;5096157;28;19928;-75
2022/09/18 11:31:36;;;;;;;;;;;;;;;18.27;53.56;100296.81;5083016;28;20012;-74
2022/09/18 11:34:03;;;;;;;;;;;;;;;18.44;53.24;100296.09;5084136;28;19924;-74
2022/09/18 11:36:30;;;;;;;;;;;;;;;18.93;51.17;100281.81;5085827;28;19955;-74
2022/09/18 11:38:59;;;;;;;;;;;;;;;19.07;51.55;100297.31;5082151;28;19954;-74
2022/09/18 11:41:29;;;;;;;;;;;;;;;19.75;49.27;100301.41;5077528;28;20311;-74
2022/09/18 11:43:59;;;;;;;;;;;;;;;19.86;47.82;100293.22;5084985;28;19924;-74
2022/09/18 11:46:30;;;;;;;;;;;;;;;18.81;48.53;100305.06;5085004;28;20288;-74
2022/09/18 11:49:00;;;;;;;;;;;;;;;18.01;49.66;100291.19;5087975;28;19928;-74
2022/09/18 11:51:32;;;;;;;;;;;;;;;17.55;51.39;100285.63;5088284;28;19969;-74
2022/09/18 11:54:03;;;;;;;;;;;;;;;17.17;52.29;100297.75;5086774;28;19923;-74
2022/09/18 11:56:34;;;;;;;;;;;;;;;16.87;51.94;100289.75;5089620;28;20011;-74
2022/09/18 11:59:03;;;;;;;;;;;;;;;17.55;51.25;100269.72;5088535;28;19928;-74
2022/09/18 12:01:33;;;;;;;;;;;;;;;17.63;49.89;100261.94;5088662;28;20341;-74
2022/09/18 12:04:03;;;;;;;;;;;;;;;17.58;49.29;100274.78;5088327;28;19928;-74
2022/09/18 12:06:34;;;;;;;;;;;;;;;17.44;50.11;100268.00;5101120;28;19974;-74
2022/09/18 12:09:03;;;;;;;;;;;;;;;17.21;50.16;100266.50;5088405;28;20015;-74
2022/09/18 12:11:35;;;;;;;;;;;;;;;17.41;51.96;100265.59;5081033;28;19932;-74
2022/09/18 12:14:05;;;;;;;;;;;;;;;17.32;50.96;100256.66;5087501;28;19924;-74
2022/09/18 12:16:39;;;;;;;;;;;;;;;17.35;51.79;100256.41;5087224;28;20426;-76
2022/09/18 12:19:10;;;;;;;;;;;;;;;16.95;51.52;100259.00;5083126;28;19924;-75
2022/09/18 12:21:39;;;;;;;;;;;;;;;16.54;50.71;100251.06;5089085;28;19928;-74
2022/09/18 12:24:09;;;;;;;;;;;;;;;16.46;52.14;100254.34;5084281;28;19950;-74
2022/09/18 12:26:41;;;;;;;;;;;;;;;16.57;53.25;100260.56;5087926;28;20009;-74
2022/09/18 12:29:15;;;;;;;;;;;;;;;16.14;54.64;100252.69;5089065;28;19993;-74
2022/09/18 12:31:46;;;;;;;;;;;;;;;16.02;55.90;100257.19;5088200;28;19928;-74
2022/09/18 12:34:17;;;;;;;;;;;;;;;15.51;60.80;100271.00;5088429;28;19924;-75
2022/09/18 12:36:52;;;;;;;;;;;;;;;15.73;64.26;100256.06;5087057;28;19924;-75
2022/09/18 12:39:37;;;;;;;;;;;;;;;15.52;66.68;100279.78;5087121;28;19973;-74
2022/09/18 12:42:09;;;;;;;;;;;;;;;14.89;66.04;100285.59;5088449;28;20337;-74